sensor_id;sensor_type;location;lat;lon;timestamp;pressure;altitude;pressure_sealevel;temperature;humidity
6435;BME280;3250;42.694;23.278;2022-08-23T00:00:46;94299.56;;;19.39;96.44
6435;BME280;3250;42.694;23.278;2022-08-23T00:03:12;94303.03;;;19.39;97.02
6435;BME280;3250;42.694;23.278;2022-08-23T00:05:37;94309.16;;;19.40;97.41
6435;BME280;3250;42.694;23.278;2022-08-23T00:08:03;94305.41;;;19.41;96.59
6435;BME280;3250;42.694;23.278;2022-08-23T00:10:29;94312.63;;;19.40;96.24
6435;BME280;3250;42.694;23.278;2022-08-23T00:12:54;94303.63;;;19.31;95.53
6435;BME280;3250;42.694;23.278;2022-08-23T00:15:20;94315.84;;;19.37;96.24
6435;BME280;3250;42.694;23.278;2022-08-23T00:17:46;94320.09;;;19.43;96.41
6435;BME280;3250;42.694;23.278;2022-08-23T00:20:14;94323.56;;;19.44;95.81
6435;BME280;3250;42.694;23.278;2022-08-23T00:22:40;94319.03;;;19.44;95.95
6435;BME280;3250;42.694;23.278;2022-08-23T00:25:08;94304.06;;;19.43;96.39
6435;BME280;3250;42.694;23.278;2022-08-23T00:27:34;94304.06;;;19.43;96.93
6435;BME280;3250;42.694;23.278;2022-08-23T00:30:01;94306.47;;;19.45;96.28
6435;BME280;3250;42.694;23.278;2022-08-23T00:32:30;94291.34;;;19.30;95.77
6435;BME280;3250;42.694;23.278;2022-08-23T00:34:56;94304.16;;;19.33;96.31
6435;BME280;3250;42.694;23.278;2022-08-23T00:37:23;94307.56;;;19.39;97.65
6435;BME280;3250;42.694;23.278;2022-08-23T00:39:49;94314.47;;;19.45;98.95
6435;BME280;3250;42.694;23.278;2022-08-23T00:42:37;94303.25;;;19.48;98.98
6435;BME280;3250;42.694;23.278;2022-08-23T00:45:46;94313.84;;;19.63;98.51
6435;BME280;3250;42.694;23.278;2022-08-23T00:48:33;94304.72;;;19.64;98.49
6435;BME280;3250;42.694;23.278;2022-08-23T00:51:19;94301.63;;;19.52;98.23
6435;BME280;3250;42.694;23.278;2022-08-23T00:53:49;94309.13;;;19.50;98.54
6435;BME280;3250;42.694;23.278;2022-08-23T00:56:19;94313.91;;;19.53;98.80
6435;BME280;3250;42.694;23.278;2022-08-23T00:58:45;94305.66;;;19.49;98.12
6435;BME280;3250;42.694;23.278;2022-08-23T01:01:12;94316.06;;;19.51;97.83
6435;BME280;3250;42.694;23.278;2022-08-23T01:03:41;94320.31;;;19.52;98.28
6435;BME280;3250;42.694;23.278;2022-08-23T01:06:14;94318.41;;;19.57;97.76
6435;BME280;3250;42.694;23.278;2022-08-23T01:08:45;94306.97;;;19.52;97.95
6435;BME280;3250;42.694;23.278;2022-08-23T01:11:21;94316.78;;;19.62;98.66
6435;BME280;3250;42.694;23.278;2022-08-23T01:13:56;94316.78;;;19.62;98.09
6435;BME280;3250;42.694;23.278;2022-08-23T01:16:35;94317.13;;;19.50;98.71
6435;BME280;3250;42.694;23.278;2022-08-23T01:19:08;94317.13;;;19.50;98.79
6435;BME280;3250;42.694;23.278;2022-08-23T01:21:46;94321.41;;;19.46;99.47
6435;BME280;3250;42.694;23.278;2022-08-23T01:26:40;94320.59;;;19.50;99.15
6435;BME280;3250;42.694;23.278;2022-08-23T01:29:06;94307.53;;;19.44;98.95
6435;BME280;3250;42.694;23.278;2022-08-23T01:31:33;94321.13;;;19.47;99.26
6435;BME280;3250;42.694;23.278;2022-08-23T01:34:07;94322.72;;;19.53;99.65
6435;BME280;3250;42.694;23.278;2022-08-23T01:36:34;94319.75;;;19.55;99.04
6435;BME280;3250;42.694;23.278;2022-08-23T01:39:00;94292.41;;;19.34;98.99
6435;BME280;3250;42.694;23.278;2022-08-23T01:41:26;94318.44;;;19.52;99.14
6435;BME280;3250;42.694;23.278;2022-08-23T01:43:52;94316.59;;;19.48;99.79
6435;BME280;3250;42.694;23.278;2022-08-23T01:46:20;94304.28;;;19.47;99.72
6435;BME280;3250;42.694;23.278;2022-08-23T01:48:48;94329.66;;;19.54;99.38
6435;BME280;3250;42.694;23.278;2022-08-23T01:51:15;94319.47;;;19.56;98.78
6435;BME280;3250;42.694;23.278;2022-08-23T01:53:41;94324.00;;;19.56;99.21
6435;BME280;3250;42.694;23.278;2022-08-23T01:56:07;94314.19;;;19.46;98.20
6435;BME280;3250;42.694;23.278;2022-08-23T01:58:34;94313.44;;;19.41;98.65
6435;BME280;3250;42.694;23.278;2022-08-23T02:01:01;94289.53;;;19.20;99.08
6435;BME280;3250;42.694;23.278;2022-08-23T02:03:28;94312.69;;;19.30;98.88
6435;BME280;3250;42.694;23.278;2022-08-23T02:05:55;94302.34;;;19.23;99.56
6435;BME280;3250;42.694;23.278;2022-08-23T02:08:21;94309.28;;;19.25;99.73
6435;BME280;3250;42.694;23.278;2022-08-23T02:11:14;94308.69;;;19.33;100.00
6435;BME280;3250;42.694;23.278;2022-08-23T02:13:41;94312.47;;;19.27;99.01
6435;BME280;3250;42.694;23.278;2022-08-23T02:16:07;94312.75;;;19.25;99.45
6435;BME280;3250;42.694;23.278;2022-08-23T02:18:33;94305.75;;;19.29;99.72
6435;BME280;3250;42.694;23.278;2022-08-23T02:20:59;94298.34;;;19.26;99.32
6435;BME280;3250;42.694;23.278;2022-08-23T02:23:25;94303.34;;;19.33;99.25
6435;BME280;3250;42.694;23.278;2022-08-23T02:25:51;94302.75;;;19.41;98.55
6435;BME280;3250;42.694;23.278;2022-08-23T02:28:18;94301.44;;;19.38;98.65
6435;BME280;3250;42.694;23.278;2022-08-23T02:30:45;94298.94;;;19.47;98.52
6435;BME280;3250;42.694;23.278;2022-08-23T02:33:11;94302.72;;;19.46;97.50
6435;BME280;3250;42.694;23.278;2022-08-23T02:35:37;94301.94;;;19.40;97.91
6435;BME280;3250;42.694;23.278;2022-08-23T02:38:05;94302.75;;;19.41;97.44
6435;BME280;3250;42.694;23.278;2022-08-23T02:40:31;94305.13;;;19.47;97.37
6435;BME280;3250;42.694;23.278;2022-08-23T02:42:56;94287.53;;;19.41;96.92
6435;BME280;3250;42.694;23.278;2022-08-23T02:45:24;94293.56;;;19.57;96.71
6435;BME280;3250;42.694;23.278;2022-08-23T02:47:50;94311.66;;;19.65;95.29
6435;BME280;3250;42.694;23.278;2022-08-23T02:50:15;94301.75;;;19.71;94.41
6435;BME280;3250;42.694;23.278;2022-08-23T02:52:41;94306.19;;;19.80;93.83
6435;BME280;3250;42.694;23.278;2022-08-23T02:55:06;94309.59;;;19.86;93.54
6435;BME280;3250;42.694;23.278;2022-08-23T02:57:32;94307.47;;;19.83;92.42
6435;BME280;3250;42.694;23.278;2022-08-23T02:59:58;94300.78;;;19.85;91.72
6435;BME280;3250;42.694;23.278;2022-08-23T03:02:23;94299.72;;;19.86;91.25
6435;BME280;3250;42.694;23.278;2022-08-23T03:04:49;94295.91;;;19.92;90.65
6435;BME280;3250;42.694;23.278;2022-08-23T03:07:14;94294.59;;;19.90;90.62
6435;BME280;3250;42.694;23.278;2022-08-23T03:09:40;94281.03;;;19.86;88.39
6435;BME280;3250;42.694;23.278;2022-08-23T03:12:05;94275.41;;;19.88;88.47
6435;BME280;3250;42.694;23.278;2022-08-23T03:14:31;94282.00;;;19.95;88.88
6435;BME280;3250;42.694;23.278;2022-08-23T03:16:57;94299.28;;;20.03;88.77
6435;BME280;3250;42.694;23.278;2022-08-23T03:19:22;94298.72;;;20.06;86.97
6435;BME280;3250;42.694;23.278;2022-08-23T03:21:48;94304.56;;;20.08;87.70
6435;BME280;3250;42.694;23.278;2022-08-23T03:24:13;94302.69;;;20.09;87.51
6435;BME280;3250;42.694;23.278;2022-08-23T03:26:43;94296.25;;;20.10;86.97
6435;BME280;3250;42.694;23.278;2022-08-23T03:29:09;94295.91;;;20.16;87.07
6435;BME280;3250;42.694;23.278;2022-08-23T03:31:35;94300.19;;;20.17;87.50
6435;BME280;3250;42.694;23.278;2022-08-23T03:34:01;94288.81;;;20.07;88.10
6435;BME280;3250;42.694;23.278;2022-08-23T03:36:26;94303.44;;;20.14;88.66
6435;BME280;3250;42.694;23.278;2022-08-23T03:38:52;94275.56;;;19.96;88.08
6435;BME280;3250;42.694;23.278;2022-08-23T03:41:17;94311.16;;;20.16;88.27
6435;BME280;3250;42.694;23.278;2022-08-23T03:43:43;94312.53;;;20.13;89.28
6435;BME280;3250;42.694;23.278;2022-08-23T03:46:09;94312.81;;;20.12;89.66
6435;BME280;3250;42.694;23.278;2022-08-23T03:48:50;94322.19;;;20.09;89.91
6435;BME280;3250;42.694;23.278;2022-08-23T03:51:17;94298.91;;;19.86;90.62
6435;BME280;3250;42.694;23.278;2022-08-23T03:53:43;94330.03;;;20.01;90.46
6435;BME280;3250;42.694;23.278;2022-08-23T03:58:51;94322.91;;;19.62;91.38
6435;BME280;3250;42.694;23.278;2022-08-23T04:01:17;94361.59;;;19.65;91.77
6435;BME280;3250;42.694;23.278;2022-08-23T04:03:43;94359.03;;;19.54;92.67
6435;BME280;3250;42.694;23.278;2022-08-23T04:06:09;94368.34;;;19.57;92.44
6435;BME280;3250;42.694;23.278;2022-08-23T04:08:35;94374.53;;;19.52;92.93
6435;BME280;3250;42.694;23.278;2022-08-23T04:11:01;94353.31;;;19.22;93.75
6435;BME280;3250;42.694;23.278;2022-08-23T04:13:27;94376.44;;;19.42;94.98
6435;BME280;3250;42.694;23.278;2022-08-23T04:15:54;94379.88;;;19.47;95.52
6435;BME280;3250;42.694;23.278;2022-08-23T04:18:20;94383.59;;;19.51;95.46
6435;BME280;3250;42.694;23.278;2022-08-23T04:20:46;94371.63;;;19.44;95.10
6435;BME280;3250;42.694;23.278;2022-08-23T04:23:12;94383.34;;;19.48;94.42
6435;BME280;3250;42.694;23.278;2022-08-23T04:25:37;94389.03;;;19.36;95.27
6435;BME280;3250;42.694;23.278;2022-08-23T04:28:04;94396.78;;;19.33;96.24
6435;BME280;3250;42.694;23.278;2022-08-23T04:30:31;94391.38;;;19.38;96.78
6435;BME280;3250;42.694;23.278;2022-08-23T04:32:57;94388.97;;;19.41;96.51
6435;BME280;3250;42.694;23.278;2022-08-23T04:35:22;94386.31;;;19.41;96.25
6435;BME280;3250;42.694;23.278;2022-08-23T04:37:49;94385.75;;;19.44;96.78
6435;BME280;3250;42.694;23.278;2022-08-23T04:42:59;94389.72;;;19.47;96.08
6435;BME280;3250;42.694;23.278;2022-08-23T04:45:25;94405.44;;;19.58;96.50
6435;BME280;3250;42.694;23.278;2022-08-23T04:47:51;94403.31;;;19.61;96.51
6435;BME280;3250;42.694;23.278;2022-08-23T04:50:17;94387.50;;;19.64;96.95
6435;BME280;3250;42.694;23.278;2022-08-23T04:52:43;94391.97;;;19.74;96.62
6435;BME280;3250;42.694;23.278;2022-08-23T04:55:09;94398.63;;;19.76;96.52
6435;BME280;3250;42.694;23.278;2022-08-23T04:57:34;94394.84;;;19.82;96.08
6435;BME280;3250;42.694;23.278;2022-08-23T05:00:00;94402.56;;;19.89;95.68
6435;BME280;3250;42.694;23.278;2022-08-23T05:02:26;94404.38;;;19.93;95.38
6435;BME280;3250;42.694;23.278;2022-08-23T05:04:51;94407.31;;;19.97;95.38
6435;BME280;3250;42.694;23.278;2022-08-23T05:07:18;94414.47;;;20.02;95.47
6435;BME280;3250;42.694;23.278;2022-08-23T05:09:43;94418.94;;;20.11;94.37
6435;BME280;3250;42.694;23.278;2022-08-23T05:12:10;94428.47;;;20.22;94.31
6435;BME280;3250;42.694;23.278;2022-08-23T05:14:35;94427.19;;;20.15;92.82
6435;BME280;3250;42.694;23.278;2022-08-23T05:17:00;94427.97;;;20.15;93.03
6435;BME280;3250;42.694;23.278;2022-08-23T05:19:26;94432.22;;;20.21;93.12
6435;BME280;3250;42.694;23.278;2022-08-23T05:21:52;94432.97;;;20.27;92.77
6435;BME280;3250;42.694;23.278;2022-08-23T05:24:17;94439.84;;;20.33;92.58
6435;BME280;3250;42.694;23.278;2022-08-23T05:26:42;94440.91;;;20.37;92.87
6435;BME280;3250;42.694;23.278;2022-08-23T05:29:08;94443.03;;;20.40;92.29
6435;BME280;3250;42.694;23.278;2022-08-23T05:31:33;94443.50;;;20.47;92.49
6435;BME280;3250;42.694;23.278;2022-08-23T05:33:59;94442.28;;;20.58;91.95
6435;BME280;3250;42.694;23.278;2022-08-23T05:36:24;94434.59;;;20.81;92.00
6435;BME280;3250;42.694;23.278;2022-08-23T05:38:50;94439.66;;;21.06;91.65
6435;BME280;3250;42.694;23.278;2022-08-23T05:41:17;94416.00;;;21.13;90.46
6435;BME280;3250;42.694;23.278;2022-08-23T05:43:43;94440.59;;;21.58;90.14
6435;BME280;3250;42.694;23.278;2022-08-23T05:46:16;94432.06;;;22.26;88.39
6435;BME280;3250;42.694;23.278;2022-08-23T05:48:45;94428.84;;;22.88;84.71
6435;BME280;3250;42.694;23.278;2022-08-23T05:51:14;94446.81;;;23.29;80.40
6435;BME280;3250;42.694;23.278;2022-08-23T05:53:41;94442.66;;;23.50;78.90
6435;BME280;3250;42.694;23.278;2022-08-23T05:56:13;94442.09;;;23.62;78.45
6435;BME280;3250;42.694;23.278;2022-08-23T05:58:39;94455.31;;;23.86;77.65
6435;BME280;3250;42.694;23.278;2022-08-23T06:01:04;94439.56;;;23.79;76.64
6435;BME280;3250;42.694;23.278;2022-08-23T06:03:30;94462.38;;;23.82;76.64
6435;BME280;3250;42.694;23.278;2022-08-23T06:05:57;94445.03;;;23.88;76.72
6435;BME280;3250;42.694;23.278;2022-08-23T06:08:22;94464.03;;;24.27;77.13
6435;BME280;3250;42.694;23.278;2022-08-23T06:10:48;94472.16;;;24.58;74.60
6435;BME280;3250;42.694;23.278;2022-08-23T06:13:14;94472.47;;;24.34;72.78
6435;BME280;3250;42.694;23.278;2022-08-23T06:15:42;94477.59;;;24.44;74.04
6435;BME280;3250;42.694;23.278;2022-08-23T06:18:08;94461.09;;;24.37;74.16
6435;BME280;3250;42.694;23.278;2022-08-23T06:20:33;94473.81;;;24.46;72.35
6435;BME280;3250;42.694;23.278;2022-08-23T06:22:59;94479.22;;;24.46;75.31
6435;BME280;3250;42.694;23.278;2022-08-23T06:25:24;94485.91;;;24.57;73.93
6435;BME280;3250;42.694;23.278;2022-08-23T06:27:49;94488.94;;;24.55;73.69
6435;BME280;3250;42.694;23.278;2022-08-23T06:30:16;94494.06;;;24.43;74.29
6435;BME280;3250;42.694;23.278;2022-08-23T06:32:41;94484.66;;;24.18;75.95
6435;BME280;3250;42.694;23.278;2022-08-23T06:35:07;94462.53;;;23.99;77.12
6435;BME280;3250;42.694;23.278;2022-08-23T06:37:32;94488.47;;;24.39;76.41
6435;BME280;3250;42.694;23.278;2022-08-23T06:39:58;94484.75;;;24.71;75.89
6435;BME280;3250;42.694;23.278;2022-08-23T06:42:23;94498.78;;;25.22;74.34
6435;BME280;3250;42.694;23.278;2022-08-23T06:44:50;94502.47;;;25.74;71.09
6435;BME280;3250;42.694;23.278;2022-08-23T06:47:15;94495.84;;;26.23;70.69
6435;BME280;3250;42.694;23.278;2022-08-23T06:49:41;94497.25;;;26.81;67.77
6435;BME280;3250;42.694;23.278;2022-08-23T06:52:06;94505.81;;;26.83;65.54
6435;BME280;3250;42.694;23.278;2022-08-23T06:54:34;94505.66;;;26.88;66.24
6435;BME280;3250;42.694;23.278;2022-08-23T06:57:01;94495.66;;;26.80;65.71
6435;BME280;3250;42.694;23.278;2022-08-23T06:59:27;94481.09;;;26.46;65.61
6435;BME280;3250;42.694;23.278;2022-08-23T07:01:59;94504.44;;;26.59;67.10
6435;BME280;3250;42.694;23.278;2022-08-23T07:04:30;94502.63;;;26.98;65.86
6435;BME280;3250;42.694;23.278;2022-08-23T07:06:57;94480.00;;;27.11;62.49
6435;BME280;3250;42.694;23.278;2022-08-23T07:09:23;94485.53;;;27.23;63.72
6435;BME280;3250;42.694;23.278;2022-08-23T07:11:49;94499.16;;;27.35;63.37
6435;BME280;3250;42.694;23.278;2022-08-23T07:14:18;94494.16;;;27.46;64.11
6435;BME280;3250;42.694;23.278;2022-08-23T07:16:49;94502.06;;;27.60;63.66
6435;BME280;3250;42.694;23.278;2022-08-23T07:19:17;94490.06;;;27.40;60.89
6435;BME280;3250;42.694;23.278;2022-08-23T07:21:43;94501.22;;;27.38;62.76
6435;BME280;3250;42.694;23.278;2022-08-23T07:24:09;94504.47;;;27.23;62.69
6435;BME280;3250;42.694;23.278;2022-08-23T07:26:35;94499.81;;;27.32;63.40
6435;BME280;3250;42.694;23.278;2022-08-23T07:29:04;94496.88;;;27.46;64.05
6435;BME280;3250;42.694;23.278;2022-08-23T07:31:32;94499.94;;;27.36;60.27
6435;BME280;3250;42.694;23.278;2022-08-23T07:34:00;94495.41;;;27.19;61.61
6435;BME280;3250;42.694;23.278;2022-08-23T07:36:27;94499.94;;;26.98;62.80
6435;BME280;3250;42.694;23.278;2022-08-23T07:38:54;94493.31;;;26.52;63.24
6435;BME280;3250;42.694;23.278;2022-08-23T07:41:22;94491.22;;;26.06;64.53
6435;BME280;3250;42.694;23.278;2022-08-23T07:43:48;94490.81;;;25.56;65.80
6435;BME280;3250;42.694;23.278;2022-08-23T07:46:14;94504.75;;;25.41;66.15
6435;BME280;3250;42.694;23.278;2022-08-23T07:48:40;94499.56;;;25.13;69.21
6435;BME280;3250;42.694;23.278;2022-08-23T07:51:10;94498.78;;;24.91;67.77
6435;BME280;3250;42.694;23.278;2022-08-23T07:53:36;94498.25;;;24.80;68.61
6435;BME280;3250;42.694;23.278;2022-08-23T07:56:09;94498.50;;;24.70;69.91
6435;BME280;3250;42.694;23.278;2022-08-23T07:58:34;94498.69;;;24.73;70.35
6435;BME280;3250;42.694;23.278;2022-08-23T08:01:15;94501.81;;;24.67;71.17
6435;BME280;3250;42.694;23.278;2022-08-23T08:03:46;94499.41;;;24.65;72.06
6435;BME280;3250;42.694;23.278;2022-08-23T08:06:15;94505.31;;;24.67;69.81
6435;BME280;3250;42.694;23.278;2022-08-23T08:08:42;94500.00;;;24.54;69.87
6435;BME280;3250;42.694;23.278;2022-08-23T08:11:09;94513.31;;;24.59;69.02
6435;BME280;3250;42.694;23.278;2022-08-23T08:13:43;94503.78;;;24.53;71.39
6435;BME280;3250;42.694;23.278;2022-08-23T08:16:10;94514.25;;;24.54;71.24
6435;BME280;3250;42.694;23.278;2022-08-23T08:18:43;94514.81;;;24.65;69.41
6435;BME280;3250;42.694;23.278;2022-08-23T08:21:12;94520.41;;;24.77;69.55
6435;BME280;3250;42.694;23.278;2022-08-23T08:23:38;94522.94;;;24.73;69.12
6435;BME280;3250;42.694;23.278;2022-08-23T08:26:06;94526.91;;;24.76;68.26
6435;BME280;3250;42.694;23.278;2022-08-23T08:28:33;94525.25;;;24.66;67.85
6435;BME280;3250;42.694;23.278;2022-08-23T08:31:00;94529.75;;;25.02;69.90
6435;BME280;3250;42.694;23.278;2022-08-23T08:33:26;94514.34;;;25.64;69.86
6435;BME280;3250;42.694;23.278;2022-08-23T08:35:53;94538.22;;;26.22;64.87
6435;BME280;3250;42.694;23.278;2022-08-23T08:38:18;94541.13;;;26.35;64.04
6435;BME280;3250;42.694;23.278;2022-08-23T08:40:44;94514.41;;;26.24;65.28
6435;BME280;3250;42.694;23.278;2022-08-23T08:46:13;94520.28;;;26.09;63.53
6435;BME280;3250;42.694;23.278;2022-08-23T08:48:46;94535.22;;;26.07;64.74
6435;BME280;3250;42.694;23.278;2022-08-23T08:54:07;94485.38;;;25.39;65.72
6435;BME280;3250;42.694;23.278;2022-08-23T08:56:36;94515.66;;;25.36;66.97
6435;BME280;3250;42.694;23.278;2022-08-23T08:59:06;94499.81;;;25.03;66.97
6435;BME280;3250;42.694;23.278;2022-08-23T09:01:35;94508.41;;;25.05;68.39
6435;BME280;3250;42.694;23.278;2022-08-23T09:04:02;94495.69;;;24.97;70.92
6435;BME280;3250;42.694;23.278;2022-08-23T09:19:57;94478.91;;;25.09;68.53
6435;BME280;3250;42.694;23.278;2022-08-23T09:22:39;94477.59;;;25.37;71.44
6435;BME280;3250;42.694;23.278;2022-08-23T09:25:08;94459.31;;;25.65;65.89
6435;BME280;3250;42.694;23.278;2022-08-23T09:27:40;94487.16;;;26.26;66.44
6435;BME280;3250;42.694;23.278;2022-08-23T09:30:12;94484.88;;;26.62;62.91
6435;BME280;3250;42.694;23.278;2022-08-23T09:32:41;94489.59;;;26.83;63.20
6435;BME280;3250;42.694;23.278;2022-08-23T09:37:59;94489.38;;;27.14;61.99
6435;BME280;3250;42.694;23.278;2022-08-23T09:43:16;94489.09;;;27.07;62.54
6435;BME280;3250;42.694;23.278;2022-08-23T09:46:01;94488.63;;;27.04;62.74
6435;BME280;3250;42.694;23.278;2022-08-23T09:48:43;94476.72;;;26.88;62.03
6435;BME280;3250;42.694;23.278;2022-08-23T09:51:24;94447.09;;;26.62;60.67
6435;BME280;3250;42.694;23.278;2022-08-23T09:54:00;94467.56;;;26.63;62.69
6435;BME280;3250;42.694;23.278;2022-08-23T09:56:29;94484.75;;;26.42;62.21
6435;BME280;3250;42.694;23.278;2022-08-23T09:58:56;94490.13;;;26.50;62.56
6435;BME280;3250;42.694;23.278;2022-08-23T10:01:27;94473.78;;;26.47;62.54
6435;BME280;3250;42.694;23.278;2022-08-23T10:06:30;94481.72;;;26.43;62.01
6435;BME280;3250;42.694;23.278;2022-08-23T10:08:56;94490.59;;;26.61;61.61
6435;BME280;3250;42.694;23.278;2022-08-23T10:11:28;94488.03;;;26.64;60.00
6435;BME280;3250;42.694;23.278;2022-08-23T10:13:55;94489.34;;;26.50;62.87
6435;BME280;3250;42.694;23.278;2022-08-23T10:19:18;94491.44;;;26.27;60.81
6435;BME280;3250;42.694;23.278;2022-08-23T10:22:00;94488.41;;;26.20;61.37
6435;BME280;3250;42.694;23.278;2022-08-23T10:27:08;94489.03;;;26.43;62.31
6435;BME280;3250;42.694;23.278;2022-08-23T10:30:04;94487.13;;;26.60;62.93
6435;BME280;3250;42.694;23.278;2022-08-23T10:46:26;94480.44;;;26.23;62.55
6435;BME280;3250;42.694;23.278;2022-08-23T10:48:58;94469.84;;;26.27;62.63
6435;BME280;3250;42.694;23.278;2022-08-23T10:51:45;94476.66;;;26.42;60.67
6435;BME280;3250;42.694;23.278;2022-08-23T10:54:18;94466.03;;;26.28;60.90
6435;BME280;3250;42.694;23.278;2022-08-23T10:56:58;94468.38;;;26.38;58.90
6435;BME280;3250;42.694;23.278;2022-08-23T10:59:25;94459.97;;;26.22;58.49
6435;BME280;3250;42.694;23.278;2022-08-23T11:02:17;94467.75;;;26.33;57.73
6435;BME280;3250;42.694;23.278;2022-08-23T11:07:32;94473.16;;;26.50;60.02
6435;BME280;3250;42.694;23.278;2022-08-23T11:12:32;94466.00;;;26.45;56.77
6435;BME280;3250;42.694;23.278;2022-08-23T11:15:10;94467.59;;;26.55;56.77
6435;BME280;3250;42.694;23.278;2022-08-23T11:26:00;94464.72;;;26.60;58.42
6435;BME280;3250;42.694;23.278;2022-08-23T11:33:51;94460.59;;;26.54;56.16
6435;BME280;3250;42.694;23.278;2022-08-23T11:36:25;94449.16;;;26.48;57.43
6435;BME280;3250;42.694;23.278;2022-08-23T11:41:29;94452.44;;;26.80;59.79
6435;BME280;3250;42.694;23.278;2022-08-23T12:00:15;94455.84;;;27.15;54.46
6435;BME280;3250;42.694;23.278;2022-08-23T12:03:03;94444.34;;;27.18;53.39
6435;BME280;3250;42.694;23.278;2022-08-23T12:21:47;94457.44;;;27.07;53.20
6435;BME280;3250;42.694;23.278;2022-08-23T12:24:33;94450.09;;;27.16;53.00
6435;BME280;3250;42.694;23.278;2022-08-23T12:30:16;94433.06;;;27.24;53.58
6435;BME280;3250;42.694;23.278;2022-08-23T12:35:55;94449.47;;;27.11;54.60
6435;BME280;3250;42.694;23.278;2022-08-23T12:39:00;94443.81;;;26.95;55.38
6435;BME280;3250;42.694;23.278;2022-08-23T12:41:32;94438.13;;;26.79;57.23
6435;BME280;3250;42.694;23.278;2022-08-23T12:44:06;94438.53;;;26.52;58.30
6435;BME280;3250;42.694;23.278;2022-08-23T12:46:42;94442.84;;;26.36;57.46
6435;BME280;3250;42.694;23.278;2022-08-23T12:49:21;94428.22;;;26.19;57.94
6435;BME280;3250;42.694;23.278;2022-08-23T12:51:50;94437.44;;;26.10;58.25
6435;BME280;3250;42.694;23.278;2022-08-23T12:54:19;94429.97;;;25.98;58.37
6435;BME280;3250;42.694;23.278;2022-08-23T12:56:51;94442.66;;;25.98;59.41
6435;BME280;3250;42.694;23.278;2022-08-23T12:59:41;94426.00;;;25.96;59.27
6435;BME280;3250;42.694;23.278;2022-08-23T13:02:23;94431.25;;;26.01;57.98
6435;BME280;3250;42.694;23.278;2022-08-23T13:04:50;94424.09;;;26.05;58.14
6435;BME280;3250;42.694;23.278;2022-08-23T13:07:21;94418.38;;;25.98;59.45
6435;BME280;3250;42.694;23.278;2022-08-23T13:09:48;94419.66;;;25.91;59.72
6435;BME280;3250;42.694;23.278;2022-08-23T13:12:16;94424.44;;;25.95;59.55
6435;BME280;3250;42.694;23.278;2022-08-23T13:14:48;94433.28;;;25.86;60.81
6435;BME280;3250;42.694;23.278;2022-08-23T13:22:29;94431.38;;;25.78;63.40
6435;BME280;3250;42.694;23.278;2022-08-23T13:27:36;94418.81;;;25.56;65.89
6435;BME280;3250;42.694;23.278;2022-08-23T13:32:50;94412.28;;;25.40;65.87
6435;BME280;3250;42.694;23.278;2022-08-23T13:37:48;94417.16;;;25.21;69.17
6435;BME280;3250;42.694;23.278;2022-08-23T13:40:23;94414.13;;;25.14;68.25
6435;BME280;3250;42.694;23.278;2022-08-23T13:42:56;94384.34;;;24.79;67.59
6435;BME280;3250;42.694;23.278;2022-08-23T13:45:30;94398.13;;;24.78;68.66
6435;BME280;3250;42.694;23.278;2022-08-23T13:48:01;94406.16;;;24.69;71.14
6435;BME280;3250;42.694;23.278;2022-08-23T13:52:52;94382.53;;;24.66;74.44
6435;BME280;3250;42.694;23.278;2022-08-23T13:55:18;94389.06;;;24.74;74.80
6435;BME280;3250;42.694;23.278;2022-08-23T13:57:44;94395.94;;;24.49;78.11
6435;BME280;3250;42.694;23.278;2022-08-23T14:00:10;94399.56;;;24.00;80.93
6435;BME280;3250;42.694;23.278;2022-08-23T14:02:36;94415.38;;;23.79;82.97
6435;BME280;3250;42.694;23.278;2022-08-23T14:05:03;94415.25;;;23.48;83.61
6435;BME280;3250;42.694;23.278;2022-08-23T14:07:29;94407.72;;;23.23;85.19
6435;BME280;3250;42.694;23.278;2022-08-23T14:09:54;94432.78;;;23.32;85.55
6435;BME280;3250;42.694;23.278;2022-08-23T14:12:23;94446.91;;;23.38;86.76
6435;BME280;3250;42.694;23.278;2022-08-23T14:14:50;94448.50;;;23.39;86.91
6435;BME280;3250;42.694;23.278;2022-08-23T14:17:16;94452.47;;;23.41;87.59
6435;BME280;3250;42.694;23.278;2022-08-23T14:19:42;94456.25;;;23.40;86.97
6435;BME280;3250;42.694;23.278;2022-08-23T14:22:10;94428.25;;;22.91;86.47
6435;BME280;3250;42.694;23.278;2022-08-23T14:24:36;94438.06;;;22.96;87.38
6435;BME280;3250;42.694;23.278;2022-08-23T14:27:02;94455.06;;;22.78;88.22
6435;BME280;3250;42.694;23.278;2022-08-23T14:29:28;94462.34;;;22.58;90.04
6435;BME280;3250;42.694;23.278;2022-08-23T14:31:56;94436.34;;;22.27;90.56
6435;BME280;3250;42.694;23.278;2022-08-23T14:34:22;94464.78;;;22.28;91.48
6435;BME280;3250;42.694;23.278;2022-08-23T14:36:47;94439.44;;;22.01;90.03
6435;BME280;3250;42.694;23.278;2022-08-23T14:39:13;94478.69;;;22.30;90.42
6435;BME280;3250;42.694;23.278;2022-08-23T14:41:38;94474.56;;;22.18;87.67
6435;BME280;3250;42.694;23.278;2022-08-23T14:44:04;94484.28;;;22.14;84.19
6435;BME280;3250;42.694;23.278;2022-08-23T14:46:30;94497.91;;;21.99;82.83
6435;BME280;3250;42.694;23.278;2022-08-23T14:48:56;94506.22;;;21.60;82.87
6435;BME280;3250;42.694;23.278;2022-08-23T14:53:47;94516.25;;;21.50;84.10
6435;BME280;3250;42.694;23.278;2022-08-23T14:56:13;94510.66;;;21.46;83.93
6435;BME280;3250;42.694;23.278;2022-08-23T14:58:38;94509.31;;;21.49;83.51
6435;BME280;3250;42.694;23.278;2022-08-23T15:01:04;94519.47;;;21.52;83.22
6435;BME280;3250;42.694;23.278;2022-08-23T15:03:30;94468.38;;;21.24;83.72
6435;BME280;3250;42.694;23.278;2022-08-23T15:05:56;94503.31;;;21.57;86.90
6435;BME280;3250;42.694;23.278;2022-08-23T15:08:21;94491.09;;;21.69;88.36
6435;BME280;3250;42.694;23.278;2022-08-23T15:10:48;94481.66;;;21.72;89.07
6435;BME280;3250;42.694;23.278;2022-08-23T15:13:21;94478.69;;;21.73;88.75
6435;BME280;3250;42.694;23.278;2022-08-23T15:15:49;94462.63;;;21.73;89.20
6435;BME280;3250;42.694;23.278;2022-08-23T15:18:15;94474.28;;;21.82;89.91
6435;BME280;3250;42.694;23.278;2022-08-23T15:20:41;94461.44;;;21.79;90.45
6435;BME280;3250;42.694;23.278;2022-08-23T15:23:07;94482.19;;;21.93;89.41
6435;BME280;3250;42.694;23.278;2022-08-23T15:25:35;94477.03;;;21.96;88.21
6435;BME280;3250;42.694;23.278;2022-08-23T15:28:03;94475.00;;;21.88;87.85
6435;BME280;3250;42.694;23.278;2022-08-23T15:30:29;94468.72;;;21.98;88.75